sensor_id;sensor_type;location;lat;lon;timestamp;P1;durP1;ratioP1;P2;durP2;ratioP2
73089;SDS011;61269;49.450;8.610;2023-04-16T00:01:18;7.10;;;2.97;;
73089;SDS011;61269;49.450;8.610;2023-04-16T00:03:48;6.18;;;3.10;;
73089;SDS011;61269;49.450;8.610;2023-04-16T00:06:16;7.05;;;2.20;;
73089;SDS011;61269;49.450;8.610;2023-04-16T00:08:45;6.63;;;2.65;;
73089;SDS011;61269;49.450;8.610;2023-04-16T00:11:13;6.07;;;2.65;;
73089;SDS011;61269;49.450;8.610;2023-04-16T00:13:42;4.40;;;2.00;;
73089;SDS011;61269;49.450;8.610;2023-04-16T00:16:10;7.25;;;3.10;;
73089;SDS011;61269;49.450;8.610;2023-04-16T00:18:38;6.55;;;2.67;;
73089;SDS011;61269;49.450;8.610;2023-04-16T00:21:07;6.40;;;2.95;;
73089;SDS011;61269;49.450;8.610;2023-04-16T00:23:36;6.43;;;2.78;;
73089;SDS011;61269;49.450;8.610;2023-04-16T00:26:04;8.70;;;2.80;;
73089;SDS011;61269;49.450;8.610;2023-04-16T00:28:32;6.00;;;2.42;;
73089;SDS011;61269;49.450;8.610;2023-04-16T00:31:01;5.95;;;3.03;;
73089;SDS011;61269;49.450;8.610;2023-04-16T00:33:29;6.22;;;3.08;;
73089;SDS011;61269;49.450;8.610;2023-04-16T00:35:58;7.80;;;3.15;;
73089;SDS011;61269;49.450;8.610;2023-04-16T00:38:27;8.43;;;3.77;;
73089;SDS011;61269;49.450;8.610;2023-04-16T00:40:58;5.60;;;2.60;;
73089;SDS011;61269;49.450;8.610;2023-04-16T00:43:26;6.93;;;2.85;;
73089;SDS011;61269;49.450;8.610;2023-04-16T00:45:55;7.38;;;3.22;;
73089;SDS011;61269;49.450;8.610;2023-04-16T00:48:23;6.30;;;2.53;;
73089;SDS011;61269;49.450;8.610;2023-04-16T00:50:53;5.60;;;2.40;;
73089;SDS011;61269;49.450;8.610;2023-04-16T00:53:22;5.75;;;2.90;;
73089;SDS011;61269;49.450;8.610;2023-04-16T00:55:51;6.47;;;3.25;;
73089;SDS011;61269;49.450;8.610;2023-04-16T00:58:20;6.55;;;2.67;;
73089;SDS011;61269;49.450;8.610;2023-04-16T01:00:49;7.43;;;2.95;;
73089;SDS011;61269;49.450;8.610;2023-04-16T01:03:17;6.63;;;3.20;;
73089;SDS011;61269;49.450;8.610;2023-04-16T01:05:47;8.50;;;3.95;;
73089;SDS011;61269;49.450;8.610;2023-04-16T01:08:16;7.63;;;3.70;;
73089;SDS011;61269;49.450;8.610;2023-04-16T01:10:45;7.13;;;3.67;;
73089;SDS011;61269;49.450;8.610;2023-04-16T01:13:14;6.57;;;3.17;;
73089;SDS011;61269;49.450;8.610;2023-04-16T01:15:42;6.10;;;2.50;;
73089;SDS011;61269;49.450;8.610;2023-04-16T01:18:14;7.07;;;2.92;;
73089;SDS011;61269;49.450;8.610;2023-04-16T01:20:44;6.93;;;2.75;;
73089;SDS011;61269;49.450;8.610;2023-04-16T01:23:13;7.38;;;3.35;;
73089;SDS011;61269;49.450;8.610;2023-04-16T01:25:41;6.80;;;2.45;;
73089;SDS011;61269;49.450;8.610;2023-04-16T01:28:09;6.37;;;2.93;;
73089;SDS011;61269;49.450;8.610;2023-04-16T01:30:37;7.65;;;2.75;;
73089;SDS011;61269;49.450;8.610;2023-04-16T01:33:13;7.47;;;3.50;;
73089;SDS011;61269;49.450;8.610;2023-04-16T01:35:45;6.38;;;2.67;;
73089;SDS011;61269;49.450;8.610;2023-04-16T01:38:14;7.07;;;3.10;;
73089;SDS011;61269;49.450;8.610;2023-04-16T01:40:43;8.57;;;3.50;;
73089;SDS011;61269;49.450;8.610;2023-04-16T01:43:11;8.13;;;4.13;;
73089;SDS011;61269;49.450;8.610;2023-04-16T01:45:39;7.78;;;3.40;;
73089;SDS011;61269;49.450;8.610;2023-04-16T01:48:08;7.93;;;3.47;;
73089;SDS011;61269;49.450;8.610;2023-04-16T01:50:36;6.40;;;2.55;;
73089;SDS011;61269;49.450;8.610;2023-04-16T01:53:06;7.93;;;3.03;;
73089;SDS011;61269;49.450;8.610;2023-04-16T01:55:35;8.18;;;3.45;;
73089;SDS011;61269;49.450;8.610;2023-04-16T01:58:03;8.48;;;4.18;;
73089;SDS011;61269;49.450;8.610;2023-04-16T02:00:33;9.93;;;5.03;;
73089;SDS011;61269;49.450;8.610;2023-04-16T02:03:02;11.15;;;4.63;;
73089;SDS011;61269;49.450;8.610;2023-04-16T02:05:30;7.87;;;3.90;;
73089;SDS011;61269;49.450;8.610;2023-04-16T02:07:59;9.70;;;4.00;;
73089;SDS011;61269;49.450;8.610;2023-04-16T02:10:30;8.57;;;4.40;;
73089;SDS011;61269;49.450;8.610;2023-04-16T02:12:59;8.30;;;4.20;;
73089;SDS011;61269;49.450;8.610;2023-04-16T02:15:27;9.48;;;4.93;;
73089;SDS011;61269;49.450;8.610;2023-04-16T02:17:55;10.70;;;4.13;;
73089;SDS011;61269;49.450;8.610;2023-04-16T02:20:24;10.68;;;4.65;;
73089;SDS011;61269;49.450;8.610;2023-04-16T02:22:57;10.10;;;4.75;;
73089;SDS011;61269;49.450;8.610;2023-04-16T02:25:26;10.13;;;4.75;;
73089;SDS011;61269;49.450;8.610;2023-04-16T02:27:57;9.63;;;3.95;;
73089;SDS011;61269;49.450;8.610;2023-04-16T02:30:34;11.13;;;5.20;;
73089;SDS011;61269;49.450;8.610;2023-04-16T02:33:03;11.13;;;4.80;;
73089;SDS011;61269;49.450;8.610;2023-04-16T02:35:33;8.48;;;4.47;;
73089;SDS011;61269;49.450;8.610;2023-04-16T02:38:03;9.13;;;4.68;;
73089;SDS011;61269;49.450;8.610;2023-04-16T02:40:33;9.10;;;4.50;;
73089;SDS011;61269;49.450;8.610;2023-04-16T02:43:03;9.33;;;4.20;;
73089;SDS011;61269;49.450;8.610;2023-04-16T02:45:31;8.90;;;4.65;;
73089;SDS011;61269;49.450;8.610;2023-04-16T02:48:00;11.27;;;5.15;;
73089;SDS011;61269;49.450;8.610;2023-04-16T02:50:28;10.20;;;4.45;;
73089;SDS011;61269;49.450;8.610;2023-04-16T02:52:56;10.52;;;5.07;;
73089;SDS011;61269;49.450;8.610;2023-04-16T02:55:24;9.90;;;5.13;;
73089;SDS011;61269;49.450;8.610;2023-04-16T02:57:54;10.85;;;4.50;;
73089;SDS011;61269;49.450;8.610;2023-04-16T03:00:23;10.75;;;4.65;;
73089;SDS011;61269;49.450;8.610;2023-04-16T03:02:51;10.38;;;4.60;;
73089;SDS011;61269;49.450;8.610;2023-04-16T03:05:20;9.60;;;4.25;;
73089;SDS011;61269;49.450;8.610;2023-04-16T03:07:49;11.90;;;4.87;;
73089;SDS011;61269;49.450;8.610;2023-04-16T03:10:22;10.13;;;4.68;;
73089;SDS011;61269;49.450;8.610;2023-04-16T03:12:50;9.88;;;4.70;;
73089;SDS011;61269;49.450;8.610;2023-04-16T03:15:18;10.90;;;5.32;;
73089;SDS011;61269;49.450;8.610;2023-04-16T03:17:48;12.20;;;4.90;;
73089;SDS011;61269;49.450;8.610;2023-04-16T03:20:16;9.03;;;4.30;;
73089;SDS011;61269;49.450;8.610;2023-04-16T03:22:45;10.00;;;4.95;;
73089;SDS011;61269;49.450;8.610;2023-04-16T03:25:13;12.98;;;4.72;;
73089;SDS011;61269;49.450;8.610;2023-04-16T03:27:42;10.02;;;4.80;;
73089;SDS011;61269;49.450;8.610;2023-04-16T03:30:11;10.13;;;4.80;;
73089;SDS011;61269;49.450;8.610;2023-04-16T03:32:40;10.73;;;4.77;;
73089;SDS011;61269;49.450;8.610;2023-04-16T03:35:11;12.50;;;5.53;;
73089;SDS011;61269;49.450;8.610;2023-04-16T03:37:39;10.93;;;5.18;;
73089;SDS011;61269;49.450;8.610;2023-04-16T03:40:08;11.15;;;4.45;;
73089;SDS011;61269;49.450;8.610;2023-04-16T03:42:37;10.93;;;4.50;;
73089;SDS011;61269;49.450;8.610;2023-04-16T03:45:05;10.70;;;4.67;;
73089;SDS011;61269;49.450;8.610;2023-04-16T03:47:35;10.57;;;5.10;;
73089;SDS011;61269;49.450;8.610;2023-04-16T03:50:04;9.90;;;4.65;;
73089;SDS011;61269;49.450;8.610;2023-04-16T03:52:34;10.88;;;5.40;;
73089;SDS011;61269;49.450;8.610;2023-04-16T03:55:02;12.20;;;5.70;;
73089;SDS011;61269;49.450;8.610;2023-04-16T03:57:31;11.13;;;4.80;;
73089;SDS011;61269;49.450;8.610;2023-04-16T04:00:06;10.73;;;5.10;;
73089;SDS011;61269;49.450;8.610;2023-04-16T04:02:52;9.80;;;5.10;;
73089;SDS011;61269;49.450;8.610;2023-04-16T04:05:21;11.38;;;5.20;;
73089;SDS011;61269;49.450;8.610;2023-04-16T04:07:52;10.30;;;4.40;;
73089;SDS011;61269;49.450;8.610;2023-04-16T04:10:20;11.33;;;4.93;;
73089;SDS011;61269;49.450;8.610;2023-04-16T04:12:49;11.35;;;5.32;;
73089;SDS011;61269;49.450;8.610;2023-04-16T04:15:17;9.25;;;4.47;;
73089;SDS011;61269;49.450;8.610;2023-04-16T04:17:46;10.70;;;4.45;;
73089;SDS011;61269;49.450;8.610;2023-04-16T04:20:14;11.68;;;4.57;;
73089;SDS011;61269;49.450;8.610;2023-04-16T04:22:45;10.87;;;5.33;;
73089;SDS011;61269;49.450;8.610;2023-04-16T04:25:15;11.80;;;5.57;;
73089;SDS011;61269;49.450;8.610;2023-04-16T04:27:43;10.90;;;4.90;;
73089;SDS011;61269;49.450;8.610;2023-04-16T04:30:11;11.57;;;5.07;;
73089;SDS011;61269;49.450;8.610;2023-04-16T04:32:40;11.57;;;4.43;;
73089;SDS011;61269;49.450;8.610;2023-04-16T04:35:09;12.23;;;5.10;;
73089;SDS011;61269;49.450;8.610;2023-04-16T04:37:37;11.98;;;5.00;;
73089;SDS011;61269;49.450;8.610;2023-04-16T04:40:17;11.65;;;4.75;;
73089;SDS011;61269;49.450;8.610;2023-04-16T04:42:45;9.95;;;4.55;;
73089;SDS011;61269;49.450;8.610;2023-04-16T04:45:14;12.32;;;5.53;;
73089;SDS011;61269;49.450;8.610;2023-04-16T04:47:42;11.43;;;4.93;;
73089;SDS011;61269;49.450;8.610;2023-04-16T04:50:10;9.55;;;4.72;;
73089;SDS011;61269;49.450;8.610;2023-04-16T04:52:39;11.18;;;4.53;;
73089;SDS011;61269;49.450;8.610;2023-04-16T04:55:08;11.80;;;4.88;;
73089;SDS011;61269;49.450;8.610;2023-04-16T04:57:37;10.95;;;4.88;;
73089;SDS011;61269;49.450;8.610;2023-04-16T05:00:06;12.27;;;4.63;;
73089;SDS011;61269;49.450;8.610;2023-04-16T05:02:43;11.07;;;4.93;;
73089;SDS011;61269;49.450;8.610;2023-04-16T05:05:13;10.85;;;5.55;;
73089;SDS011;61269;49.450;8.610;2023-04-16T05:07:41;11.45;;;4.90;;
73089;SDS011;61269;49.450;8.610;2023-04-16T05:10:09;10.25;;;4.75;;
73089;SDS011;61269;49.450;8.610;2023-04-16T05:12:39;10.73;;;4.63;;
73089;SDS011;61269;49.450;8.610;2023-04-16T05:15:07;15.27;;;4.95;;
73089;SDS011;61269;49.450;8.610;2023-04-16T05:17:36;10.70;;;5.03;;
73089;SDS011;61269;49.450;8.610;2023-04-16T05:20:04;14.73;;;4.95;;
73089;SDS011;61269;49.450;8.610;2023-04-16T05:22:34;9.65;;;4.25;;
73089;SDS011;61269;49.450;8.610;2023-04-16T05:25:02;11.10;;;4.13;;
73089;SDS011;61269;49.450;8.610;2023-04-16T05:27:31;10.45;;;5.03;;
73089;SDS011;61269;49.450;8.610;2023-04-16T05:30:00;11.52;;;5.30;;
73089;SDS011;61269;49.450;8.610;2023-04-16T05:32:29;10.05;;;4.57;;
73089;SDS011;61269;49.450;8.610;2023-04-16T05:34:57;12.23;;;4.53;;
73089;SDS011;61269;49.450;8.610;2023-04-16T05:37:25;7.27;;;3.20;;
73089;SDS011;61269;49.450;8.610;2023-04-16T05:39:53;11.18;;;4.18;;
73089;SDS011;61269;49.450;8.610;2023-04-16T05:42:21;8.93;;;4.45;;
73089;SDS011;61269;49.450;8.610;2023-04-16T05:44:49;10.48;;;4.80;;
73089;SDS011;61269;49.450;8.610;2023-04-16T05:47:19;9.80;;;3.78;;
73089;SDS011;61269;49.450;8.610;2023-04-16T05:49:47;8.53;;;3.70;;
73089;SDS011;61269;49.450;8.610;2023-04-16T05:52:16;8.50;;;3.63;;
73089;SDS011;61269;49.450;8.610;2023-04-16T05:54:44;9.43;;;3.28;;
73089;SDS011;61269;49.450;8.610;2023-04-16T05:57:12;8.10;;;3.60;;
73089;SDS011;61269;49.450;8.610;2023-04-16T05:59:40;9.48;;;4.13;;
73089;SDS011;61269;49.450;8.610;2023-04-16T06:02:08;7.33;;;3.30;;
73089;SDS011;61269;49.450;8.610;2023-04-16T06:04:38;9.13;;;3.65;;
73089;SDS011;61269;49.450;8.610;2023-04-16T06:07:06;7.38;;;3.17;;
73089;SDS011;61269;49.450;8.610;2023-04-16T06:09:34;7.97;;;3.13;;
73089;SDS011;61269;49.450;8.610;2023-04-16T06:12:02;8.90;;;3.47;;
73089;SDS011;61269;49.450;8.610;2023-04-16T06:14:31;7.43;;;3.23;;
73089;SDS011;61269;49.450;8.610;2023-04-16T06:16:59;6.55;;;2.75;;
73089;SDS011;61269;49.450;8.610;2023-04-16T06:19:27;9.73;;;3.75;;
73089;SDS011;61269;49.450;8.610;2023-04-16T06:21:57;6.50;;;2.75;;
73089;SDS011;61269;49.450;8.610;2023-04-16T06:24:25;8.85;;;2.85;;
73089;SDS011;61269;49.450;8.610;2023-04-16T06:26:53;7.80;;;3.10;;
73089;SDS011;61269;49.450;8.610;2023-04-16T06:29:21;8.38;;;3.53;;
73089;SDS011;61269;49.450;8.610;2023-04-16T06:32:06;9.15;;;3.08;;
73089;SDS011;61269;49.450;8.610;2023-04-16T06:34:34;8.65;;;4.18;;
73089;SDS011;61269;49.450;8.610;2023-04-16T06:37:04;7.13;;;2.90;;
73089;SDS011;61269;49.450;8.610;2023-04-16T06:39:35;9.27;;;2.73;;
73089;SDS011;61269;49.450;8.610;2023-04-16T06:42:03;6.22;;;3.22;;
73089;SDS011;61269;49.450;8.610;2023-04-16T06:44:31;9.43;;;3.30;;
73089;SDS011;61269;49.450;8.610;2023-04-16T06:47:00;5.90;;;3.22;;
73089;SDS011;61269;49.450;8.610;2023-04-16T06:49:28;9.57;;;3.70;;
73089;SDS011;61269;49.450;8.610;2023-04-16T06:51:56;9.30;;;4.00;;
73089;SDS011;61269;49.450;8.610;2023-04-16T06:54:26;10.50;;;4.13;;
73089;SDS011;61269;49.450;8.610;2023-04-16T06:56:54;7.90;;;3.40;;
73089;SDS011;61269;49.450;8.610;2023-04-16T06:59:22;8.15;;;3.45;;
73089;SDS011;61269;49.450;8.610;2023-04-16T07:01:50;8.38;;;3.63;;
73089;SDS011;61269;49.450;8.610;2023-04-16T07:04:19;8.73;;;4.27;;
73089;SDS011;61269;49.450;8.610;2023-04-16T07:06:47;9.70;;;3.90;;
73089;SDS011;61269;49.450;8.610;2023-04-16T07:09:15;8.43;;;3.78;;
73089;SDS011;61269;49.450;8.610;2023-04-16T07:11:45;14.45;;;3.65;;
73089;SDS011;61269;49.450;8.610;2023-04-16T07:14:13;8.40;;;4.10;;
73089;SDS011;61269;49.450;8.610;2023-04-16T07:16:42;11.40;;;4.97;;
73089;SDS011;61269;49.450;8.610;2023-04-16T07:19:10;10.52;;;4.40;;
73089;SDS011;61269;49.450;8.610;2023-04-16T07:21:38;10.52;;;4.32;;
73089;SDS011;61269;49.450;8.610;2023-04-16T07:24:08;8.85;;;3.45;;
73089;SDS011;61269;49.450;8.610;2023-04-16T07:26:36;9.95;;;4.25;;
73089;SDS011;61269;49.450;8.610;2023-04-16T07:29:06;11.80;;;5.17;;
73089;SDS011;61269;49.450;8.610;2023-04-16T07:31:34;11.60;;;4.22;;
73089;SDS011;61269;49.450;8.610;2023-04-16T07:34:03;13.07;;;4.82;;
73089;SDS011;61269;49.450;8.610;2023-04-16T07:36:31;8.25;;;3.53;;
73089;SDS011;61269;49.450;8.610;2023-04-16T07:38:59;10.98;;;3.95;;
73089;SDS011;61269;49.450;8.610;2023-04-16T07:41:27;11.33;;;4.33;;
73089;SDS011;61269;49.450;8.610;2023-04-16T07:43:56;12.60;;;5.20;;
73089;SDS011;61269;49.450;8.610;2023-04-16T07:46:26;11.32;;;4.30;;
73089;SDS011;61269;49.450;8.610;2023-04-16T07:49:11;12.30;;;5.20;;
73089;SDS011;61269;49.450;8.610;2023-04-16T07:51:39;12.48;;;4.47;;
73089;SDS011;61269;49.450;8.610;2023-04-16T07:54:08;11.03;;;5.07;;
73089;SDS011;61269;49.450;8.610;2023-04-16T07:56:37;10.00;;;4.50;;
73089;SDS011;61269;49.450;8.610;2023-04-16T07:59:05;11.93;;;4.93;;
73089;SDS011;61269;49.450;8.610;2023-04-16T08:01:51;9.95;;;4.35;;
73089;SDS011;61269;49.450;8.610;2023-04-16T08:04:20;10.80;;;4.00;;
73089;SDS011;61269;49.450;8.610;2023-04-16T08:06:51;11.07;;;4.43;;
73089;SDS011;61269;49.450;8.610;2023-04-16T08:09:20;11.13;;;4.30;;
73089;SDS011;61269;49.450;8.610;2023-04-16T08:11:49;10.43;;;3.80;;
73089;SDS011;61269;49.450;8.610;2023-04-16T08:14:17;11.82;;;4.85;;
73089;SDS011;61269;49.450;8.610;2023-04-16T08:16:46;10.98;;;4.40;;
73089;SDS011;61269;49.450;8.610;2023-04-16T08:19:15;14.47;;;4.87;;
73089;SDS011;61269;49.450;8.610;2023-04-16T08:21:44;13.88;;;4.45;;
73089;SDS011;61269;49.450;8.610;2023-04-16T08:24:12;12.40;;;4.90;;
73089;SDS011;61269;49.450;8.610;2023-04-16T08:26:40;10.25;;;4.50;;
73089;SDS011;61269;49.450;8.610;2023-04-16T08:29:08;10.82;;;4.38;;
73089;SDS011;61269;49.450;8.610;2023-04-16T08:31:37;8.93;;;3.97;;
73089;SDS011;61269;49.450;8.610;2023-04-16T08:34:05;12.55;;;5.30;;
73089;SDS011;61269;49.450;8.610;2023-04-16T08:36:35;11.15;;;4.47;;
73089;SDS011;61269;49.450;8.610;2023-04-16T08:39:03;8.23;;;3.63;;
73089;SDS011;61269;49.450;8.610;2023-04-16T08:41:31;10.10;;;3.95;;
73089;SDS011;61269;49.450;8.610;2023-04-16T08:44:03;8.90;;;4.33;;
73089;SDS011;61269;49.450;8.610;2023-04-16T08:46:36;9.80;;;3.67;;
73089;SDS011;61269;49.450;8.610;2023-04-16T08:49:04;9.38;;;4.22;;
73089;SDS011;61269;49.450;8.610;2023-04-16T08:51:35;11.52;;;3.90;;
73089;SDS011;61269;49.450;8.610;2023-04-16T08:54:04;8.38;;;3.45;;
73089;SDS011;61269;49.450;8.610;2023-04-16T08:56:35;8.73;;;3.37;;
73089;SDS011;61269;49.450;8.610;2023-04-16T08:59:06;10.00;;;4.10;;
73089;SDS011;61269;49.450;8.610;2023-04-16T09:01:36;9.50;;;4.43;;
73089;SDS011;61269;49.450;8.610;2023-04-16T09:04:07;9.00;;;3.50;;
73089;SDS011;61269;49.450;8.610;2023-04-16T09:06:37;10.27;;;4.90;;
73089;SDS011;61269;49.450;8.610;2023-04-16T09:09:07;10.40;;;3.50;;
73089;SDS011;61269;49.450;8.610;2023-04-16T09:11:36;8.27;;;3.38;;
73089;SDS011;61269;49.450;8.610;2023-04-16T09:14:06;9.68;;;4.07;;
73089;SDS011;61269;49.450;8.610;2023-04-16T09:16:37;9.82;;;3.63;;
73089;SDS011;61269;49.450;8.610;2023-04-16T09:19:06;9.73;;;3.58;;
73089;SDS011;61269;49.450;8.610;2023-04-16T09:21:35;9.90;;;4.50;;
73089;SDS011;61269;49.450;8.610;2023-04-16T09:24:05;10.13;;;3.45;;
73089;SDS011;61269;49.450;8.610;2023-04-16T09:26:34;10.15;;;3.85;;
73089;SDS011;61269;49.450;8.610;2023-04-16T09:29:02;8.95;;;4.00;;
73089;SDS011;61269;49.450;8.610;2023-04-16T09:31:30;10.00;;;4.00;;
73089;SDS011;61269;49.450;8.610;2023-04-16T09:34:02;9.70;;;4.07;;
73089;SDS011;61269;49.450;8.610;2023-04-16T09:36:31;9.13;;;3.75;;
73089;SDS011;61269;49.450;8.610;2023-04-16T09:38:59;12.50;;;4.50;;
73089;SDS011;61269;49.450;8.610;2023-04-16T09:41:30;9.43;;;3.80;;
73089;SDS011;61269;49.450;8.610;2023-04-16T09:44:02;7.80;;;3.67;;
73089;SDS011;61269;49.450;8.610;2023-04-16T09:46:33;8.90;;;3.03;;
73089;SDS011;61269;49.450;8.610;2023-04-16T09:49:03;10.63;;;3.42;;
73089;SDS011;61269;49.450;8.610;2023-04-16T09:51:35;11.48;;;4.03;;
73089;SDS011;61269;49.450;8.610;2023-04-16T09:54:03;7.70;;;2.88;;
73089;SDS011;61269;49.450;8.610;2023-04-16T09:56:33;9.48;;;4.05;;
73089;SDS011;61269;49.450;8.610;2023-04-16T09:59:07;7.57;;;3.37;;
73089;SDS011;61269;49.450;8.610;2023-04-16T10:01:36;8.73;;;3.80;;
73089;SDS011;61269;49.450;8.610;2023-04-16T10:04:04;8.63;;;3.88;;
73089;SDS011;61269;49.450;8.610;2023-04-16T10:06:33;7.30;;;3.47;;
73089;SDS011;61269;49.450;8.610;2023-04-16T10:09:01;8.75;;;3.60;;
73089;SDS011;61269;49.450;8.610;2023-04-16T10:11:35;8.30;;;3.57;;
73089;SDS011;61269;49.450;8.610;2023-04-16T10:14:03;9.30;;;3.70;;
73089;SDS011;61269;49.450;8.610;2023-04-16T10:16:32;8.82;;;4.15;;
73089;SDS011;61269;49.450;8.610;2023-04-16T10:19:00;9.70;;;3.70;;
73089;SDS011;61269;49.450;8.610;2023-04-16T10:21:29;10.70;;;4.82;;
73089;SDS011;61269;49.450;8.610;2023-04-16T10:24:00;9.87;;;3.90;;
73089;SDS011;61269;49.450;8.610;2023-04-16T10:26:28;9.98;;;3.92;;
73089;SDS011;61269;49.450;8.610;2023-04-16T10:28:58;8.70;;;3.70;;
73089;SDS011;61269;49.450;8.610;2023-04-16T10:31:27;11.05;;;4.60;;
73089;SDS011;61269;49.450;8.610;2023-04-16T10:33:55;10.65;;;5.43;;
73089;SDS011;61269;49.450;8.610;2023-04-16T10:36:24;10.13;;;4.67;;
73089;SDS011;61269;49.450;8.610;2023-04-16T10:38:57;12.02;;;3.95;;
73089;SDS011;61269;49.450;8.610;2023-04-16T10:41:26;10.50;;;3.78;;
73089;SDS011;61269;49.450;8.610;2023-04-16T10:44:04;9.65;;;3.90;;
73089;SDS011;61269;49.450;8.610;2023-04-16T10:46:36;10.30;;;4.25;;
73089;SDS011;61269;49.450;8.610;2023-04-16T10:49:12;8.83;;;3.77;;
73089;SDS011;61269;49.450;8.610;2023-04-16T10:51:40;10.15;;;4.32;;
73089;SDS011;61269;49.450;8.610;2023-04-16T10:54:18;10.02;;;4.75;;
73089;SDS011;61269;49.450;8.610;2023-04-16T10:56:48;8.82;;;4.43;;
73089;SDS011;61269;49.450;8.610;2023-04-16T10:59:18;10.23;;;3.67;;
73089;SDS011;61269;49.450;8.610;2023-04-16T11:01:48;10.07;;;4.20;;
73089;SDS011;61269;49.450;8.610;2023-04-16T11:04:28;10.05;;;4.30;;
73089;SDS011;61269;49.450;8.610;2023-04-16T11:07:00;7.53;;;4.25;;
73089;SDS011;61269;49.450;8.610;2023-04-16T11:09:51;13.05;;;4.50;;
73089;SDS011;61269;49.450;8.610;2023-04-16T11:12:24;11.35;;;5.63;;
73089;SDS011;61269;49.450;8.610;2023-04-16T11:14:58;12.70;;;4.67;;
73089;SDS011;61269;49.450;8.610;2023-04-16T11:17:28;13.73;;;4.82;;
73089;SDS011;61269;49.450;8.610;2023-04-16T11:19:58;11.80;;;5.13;;
73089;SDS011;61269;49.450;8.610;2023-04-16T11:22:26;13.75;;;5.60;;
73089;SDS011;61269;49.450;8.610;2023-04-16T11:24:55;11.98;;;5.55;;
73089;SDS011;61269;49.450;8.610;2023-04-16T11:27:24;12.37;;;6.03;;
73089;SDS011;61269;49.450;8.610;2023-04-16T11:29:55;10.77;;;4.50;;
73089;SDS011;61269;49.450;8.610;2023-04-16T11:32:26;11.43;;;5.75;;
73089;SDS011;61269;49.450;8.610;2023-04-16T11:34:54;11.43;;;5.07;;
73089;SDS011;61269;49.450;8.610;2023-04-16T11:37:30;10.82;;;5.30;;
73089;SDS011;61269;49.450;8.610;2023-04-16T11:39:59;12.33;;;4.70;;
73089;SDS011;61269;49.450;8.610;2023-04-16T11:42:28;9.50;;;4.80;;
73089;SDS011;61269;49.450;8.610;2023-04-16T11:44:58;13.63;;;5.70;;
73089;SDS011;61269;49.450;8.610;2023-04-16T11:47:28;12.00;;;5.70;;
73089;SDS011;61269;49.450;8.610;2023-04-16T11:49:57;12.15;;;4.95;;
73089;SDS011;61269;49.450;8.610;2023-04-16T11:52:26;15.47;;;6.73;;
73089;SDS011;61269;49.450;8.610;2023-04-16T11:54:54;13.02;;;6.05;;
73089;SDS011;61269;49.450;8.610;2023-04-16T11:57:23;13.82;;;7.03;;
73089;SDS011;61269;49.450;8.610;2023-04-16T11:59:52;15.00;;;6.15;;
73089;SDS011;61269;49.450;8.610;2023-04-16T12:02:40;11.18;;;4.53;;
73089;SDS011;61269;49.450;8.610;2023-04-16T12:07:57;10.93;;;5.53;;
73089;SDS011;61269;49.450;8.610;2023-04-16T12:10:25;12.95;;;5.95;;
73089;SDS011;61269;49.450;8.610;2023-04-16T12:12:54;13.35;;;5.55;;
73089;SDS011;61269;49.450;8.610;2023-04-16T12:15:43;12.43;;;5.50;;
73089;SDS011;61269;49.450;8.610;2023-04-16T12:18:14;12.83;;;5.47;;
73089;SDS011;61269;49.450;8.610;2023-04-16T12:20:42;13.00;;;5.20;;
73089;SDS011;61269;49.450;8.610;2023-04-16T12:23:21;15.38;;;6.45;;
73089;SDS011;61269;49.450;8.610;2023-04-16T12:25:49;11.63;;;5.03;;
73089;SDS011;61269;49.450;8.610;2023-04-16T12:28:27;15.43;;;5.70;;
73089;SDS011;61269;49.450;8.610;2023-04-16T12:30:56;12.03;;;5.20;;
73089;SDS011;61269;49.450;8.610;2023-04-16T12:33:26;13.10;;;5.50;;
73089;SDS011;61269;49.450;8.610;2023-04-16T12:35:54;12.63;;;5.38;;
73089;SDS011;61269;49.450;8.610;2023-04-16T12:38:22;14.40;;;5.93;;
73089;SDS011;61269;49.450;8.610;2023-04-16T12:40:52;13.45;;;5.13;;
73089;SDS011;61269;49.450;8.610;2023-04-16T12:43:23;12.60;;;5.00;;
73089;SDS011;61269;49.450;8.610;2023-04-16T12:45:51;12.10;;;5.07;;
73089;SDS011;61269;49.450;8.610;2023-04-16T12:48:20;13.27;;;5.28;;
73089;SDS011;61269;49.450;8.610;2023-04-16T12:50:51;13.73;;;5.32;;
73089;SDS011;61269;49.450;8.610;2023-04-16T12:53:20;14.25;;;5.93;;
73089;SDS011;61269;49.450;8.610;2023-04-16T12:55:48;13.80;;;5.67;;
73089;SDS011;61269;49.450;8.610;2023-04-16T12:58:17;17.23;;;6.43;;
73089;SDS011;61269;49.450;8.610;2023-04-16T13:00:45;16.83;;;6.10;;
73089;SDS011;61269;49.450;8.610;2023-04-16T13:03:13;13.85;;;6.25;;
73089;SDS011;61269;49.450;8.610;2023-04-16T13:05:42;13.52;;;6.38;;
73089;SDS011;61269;49.450;8.610;2023-04-16T13:08:11;14.47;;;6.07;;
73089;SDS011;61269;49.450;8.610;2023-04-16T13:10:39;11.73;;;5.53;;
73089;SDS011;61269;49.450;8.610;2023-04-16T13:13:08;13.63;;;6.05;;
73089;SDS011;61269;49.450;8.610;2023-04-16T13:15:36;12.82;;;5.82;;
73089;SDS011;61269;49.450;8.610;2023-04-16T13:18:04;13.25;;;5.80;;
73089;SDS011;61269;49.450;8.610;2023-04-16T13:20:32;13.40;;;5.30;;
73089;SDS011;61269;49.450;8.610;2023-04-16T13:23:01;10.63;;;4.80;;
73089;SDS011;61269;49.450;8.610;2023-04-16T13:25:31;11.45;;;5.22;;
73089;SDS011;61269;49.450;8.610;2023-04-16T13:28:00;11.38;;;4.80;;
73089;SDS011;61269;49.450;8.610;2023-04-16T13:30:28;9.05;;;4.28;;
73089;SDS011;61269;49.450;8.610;2023-04-16T13:32:57;12.03;;;5.00;;
73089;SDS011;61269;49.450;8.610;2023-04-16T13:35:26;13.52;;;5.75;;
73089;SDS011;61269;49.450;8.610;2023-04-16T13:37:54;11.43;;;5.57;;
73089;SDS011;61269;49.450;8.610;2023-04-16T13:40:22;12.60;;;5.22;;
73089;SDS011;61269;49.450;8.610;2023-04-16T13:42:52;11.23;;;5.05;;
73089;SDS011;61269;49.450;8.610;2023-04-16T13:45:20;12.43;;;6.20;;
73089;SDS011;61269;49.450;8.610;2023-04-16T13:47:48;13.10;;;5.28;;
73089;SDS011;61269;49.450;8.610;2023-04-16T13:50:16;11.90;;;6.30;;
73089;SDS011;61269;49.450;8.610;2023-04-16T13:52:45;10.93;;;4.90;;
73089;SDS011;61269;49.450;8.610;2023-04-16T13:55:13;10.60;;;5.50;;
73089;SDS011;61269;49.450;8.610;2023-04-16T13:57:44;11.93;;;4.83;;
73089;SDS011;61269;49.450;8.610;2023-04-16T14:00:15;11.65;;;5.55;;
73089;SDS011;61269;49.450;8.610;2023-04-16T14:02:44;13.52;;;5.40;;
73089;SDS011;61269;49.450;8.610;2023-04-16T14:05:14;12.05;;;5.97;;
73089;SDS011;61269;49.450;8.610;2023-04-16T14:07:42;12.23;;;5.68;;
73089;SDS011;61269;49.450;8.610;2023-04-16T14:10:11;14.20;;;6.57;;
73089;SDS011;61269;49.450;8.610;2023-04-16T14:12:39;13.05;;;5.65;;
73089;SDS011;61269;49.450;8.610;2023-04-16T14:15:07;11.88;;;5.72;;
73089;SDS011;61269;49.450;8.610;2023-04-16T14:17:37;12.68;;;5.88;;
73089;SDS011;61269;49.450;8.610;2023-04-16T14:20:06;12.73;;;5.95;;
73089;SDS011;61269;49.450;8.610;2023-04-16T14:22:35;12.53;;;5.37;;
73089;SDS011;61269;49.450;8.610;2023-04-16T14:25:03;16.48;;;5.55;;
73089;SDS011;61269;49.450;8.610;2023-04-16T14:27:32;15.73;;;6.88;;
73089;SDS011;61269;49.450;8.610;2023-04-16T14:30:00;13.98;;;5.90;;
73089;SDS011;61269;49.450;8.610;2023-04-16T14:32:29;14.13;;;6.10;;
73089;SDS011;61269;49.450;8.610;2023-04-16T14:35:00;15.37;;;5.73;;
73089;SDS011;61269;49.450;8.610;2023-04-16T14:37:28;13.98;;;6.35;;
73089;SDS011;61269;49.450;8.610;2023-04-16T14:39:57;14.02;;;6.00;;
73089;SDS011;61269;49.450;8.610;2023-04-16T14:42:25;16.60;;;6.47;;
73089;SDS011;61269;49.450;8.610;2023-04-16T14:44:54;13.23;;;5.45;;
73089;SDS011;61269;49.450;8.610;2023-04-16T14:47:22;15.30;;;5.93;;
73089;SDS011;61269;49.450;8.610;2023-04-16T14:49:50;12.50;;;5.93;;
73089;SDS011;61269;49.450;8.610;2023-04-16T14:52:20;15.48;;;6.72;;
73089;SDS011;61269;49.450;8.610;2023-04-16T14:54:49;13.20;;;5.50;;
73089;SDS011;61269;49.450;8.610;2023-04-16T14:57:18;13.55;;;6.60;;